createdAt,value
2019-06-07T00:00:40.487Z,69.57
2019-06-07T00:03:21.481Z,69.88
2019-06-07T00:05:37.555Z,69.74
2019-06-07T00:08:07.687Z,69.34
2019-06-07T00:10:36.423Z,69.82
2019-06-07T00:12:59.124Z,69.77
2019-06-07T00:15:28.830Z,69.82
2019-06-07T00:17:52.798Z,69.91
2019-06-07T00:20:23.235Z,69.63
2019-06-07T00:22:46.660Z,69.46
2019-06-07T00:25:17.318Z,69.90
2019-06-07T00:27:40.633Z,69.66
2019-06-07T00:30:33.792Z,70.00
2019-06-07T00:32:37.545Z,69.94
2019-06-07T00:35:09.109Z,69.97
2019-06-07T00:37:35.298Z,69.92
2019-06-07T00:40:13.925Z,70.03
2019-06-07T00:42:29.268Z,69.94
2019-06-07T00:44:55.492Z,69.99
2019-06-07T00:47:24.884Z,69.95
2019-06-07T00:49:49.398Z,70.05
2019-06-07T00:53:07.084Z,70.04
2019-06-07T00:54:43.151Z,70.03
2019-06-07T00:57:09.210Z,70.10
2019-06-07T00:59:35.381Z,69.62
2019-06-07T01:02:01.353Z,70.09
2019-06-07T01:04:27.407Z,69.93
2019-06-07T01:06:53.651Z,69.97
2019-06-07T01:09:22.320Z,69.86
2019-06-07T01:11:47.455Z,69.72
2019-06-07T01:14:14.579Z,69.87
2019-06-07T01:16:56.334Z,70.07
2019-06-07T01:19:09.583Z,70.11
2019-06-07T01:21:35.603Z,70.04
2019-06-07T01:24:11.573Z,69.90
2019-06-07T01:26:30.548Z,70.26
2019-06-07T01:28:56.810Z,69.50
2019-06-07T01:31:25.395Z,69.84
2019-06-07T01:33:51.481Z,69.74
2019-06-07T01:36:18.232Z,69.83
2019-06-07T01:38:45.274Z,69.51
2019-06-07T01:41:11.646Z,69.48
2019-06-07T01:43:37.797Z,70.00
2019-06-07T01:46:03.640Z,69.92
2019-06-07T01:48:48.176Z,69.92
2019-06-07T01:50:57.398Z,70.15
2019-06-07T01:53:25.738Z,69.74
2019-06-07T01:55:51.172Z,69.93
2019-06-07T01:58:17.206Z,70.19
2019-06-07T02:00:44.289Z,70.17
2019-06-07T02:03:10.567Z,69.66
2019-06-07T02:05:38.375Z,69.73
2019-06-07T02:08:04.435Z,69.90
2019-06-07T02:10:33.421Z,69.90
2019-06-07T02:12:58.209Z,69.96
2019-06-07T02:15:27.553Z,69.82
2019-06-07T02:17:51.869Z,69.95
2019-06-07T02:20:17.858Z,70.04
2019-06-07T02:22:44.129Z,70.05
2019-06-07T02:25:37.113Z,70.15
2019-06-07T02:27:38.062Z,69.97
2019-06-07T02:30:35.263Z,70.28
2019-06-07T02:32:36.536Z,69.93
2019-06-07T02:35:00.519Z,69.87
2019-06-07T02:37:27.676Z,69.79
2019-06-07T02:39:54.298Z,69.79
2019-06-07T02:42:20.252Z,70.13
2019-06-07T02:44:46.196Z,69.74
2019-06-07T02:47:12.451Z,69.92
2019-06-07T02:49:41.760Z,70.05
2019-06-07T02:52:08.549Z,70.26
2019-06-07T02:54:39.546Z,69.72
2019-06-07T02:57:02.250Z,69.64
2019-06-07T02:59:57.466Z,69.19
2019-06-07T03:01:56.010Z,70.17
2019-06-07T03:04:22.257Z,70.10
2019-06-07T03:06:49.018Z,70.33
2019-06-07T03:09:15.299Z,70.49
2019-06-07T03:11:41.353Z,70.14
2019-06-07T03:14:07.832Z,69.88
2019-06-07T03:16:37.446Z,69.87
2019-06-07T03:19:05.380Z,70.42
2019-06-07T03:21:33.780Z,69.79
2019-06-07T03:24:00.285Z,70.21
2019-06-07T03:26:27.581Z,69.84
2019-06-07T03:28:54.252Z,70.62
2019-06-07T03:31:20.430Z,69.96
2019-06-07T03:33:46.798Z,70.26
2019-06-07T03:36:23.410Z,69.93
2019-06-07T03:38:40.776Z,70.08
2019-06-07T03:41:09.840Z,69.46
2019-06-07T03:43:38.705Z,69.72
2019-06-07T03:46:03.459Z,69.77
2019-06-07T03:48:30.673Z,69.62
2019-06-07T03:51:04.589Z,70.01
2019-06-07T03:53:25.398Z,69.82
2019-06-07T03:55:51.372Z,70.38
2019-06-07T03:58:31.527Z,70.25
2019-06-07T04:00:45.199Z,70.21
2019-06-07T04:03:31.314Z,69.36
2019-06-07T04:05:42.876Z,69.81
2019-06-07T04:08:07.278Z,69.97
2019-06-07T04:10:48.318Z,69.74
2019-06-07T04:13:01.112Z,69.83
2019-06-07T04:15:28.117Z,69.16
2019-06-07T04:18:01.874Z,70.21
2019-06-07T04:20:22.129Z,70.17
2019-06-07T04:22:48.200Z,69.92
2019-06-07T04:25:14.264Z,69.90
2019-06-07T04:27:41.044Z,69.67
2019-06-07T04:30:08.368Z,69.78
2019-06-07T04:32:37.145Z,70.01
2019-06-07T04:35:02.607Z,70.02
2019-06-07T04:37:29.156Z,69.80
2019-06-07T04:39:55.127Z,70.28
2019-06-07T04:42:21.089Z,69.56
2019-06-07T04:44:47.142Z,69.81
2019-06-07T04:47:13.952Z,69.20
2019-06-07T04:49:43.441Z,69.84
2019-06-07T04:52:07.782Z,69.62
2019-06-07T04:54:38.544Z,68.87
2019-06-07T04:57:04.802Z,70.23
2019-06-07T05:00:04.265Z,69.23
2019-06-07T05:01:58.901Z,69.10
2019-06-07T05:04:25.016Z,69.67
2019-06-07T05:06:51.779Z,68.59
2019-06-07T05:09:17.864Z,68.91
2019-06-07T05:11:45.115Z,68.31
2019-06-07T05:14:11.692Z,67.66
2019-06-07T05:16:41.426Z,67.88
2019-06-07T05:19:07.181Z,67.05
2019-06-07T05:21:58.627Z,67.92
2019-06-07T05:24:09.205Z,66.69
2019-06-07T05:26:30.369Z,66.84
2019-06-07T05:28:56.224Z,67.25
2019-06-07T05:31:22.267Z,67.46
2019-06-07T05:33:48.318Z,67.38
2019-06-07T05:36:14.573Z,67.89
2019-06-07T05:38:44.199Z,67.84
2019-06-07T05:41:08.514Z,67.87
2019-06-07T05:43:38.440Z,68.13
2019-06-07T05:46:02.393Z,67.61
2019-06-07T05:48:28.423Z,67.58
2019-06-07T05:50:57.855Z,68.07
2019-06-07T05:53:22.072Z,68.47
2019-06-07T05:55:48.069Z,68.51
2019-06-07T05:58:14.267Z,68.46
2019-06-07T06:00:41.511Z,68.06
2019-06-07T06:03:08.025Z,68.71
2019-06-07T06:05:38.283Z,68.10
2019-06-07T06:08:01.974Z,68.54
2019-06-07T06:10:28.031Z,68.47
2019-06-07T06:12:54.182Z,68.40
2019-06-07T06:15:38.350Z,68.59
2019-06-07T06:17:53.020Z,68.78
2019-06-07T06:20:15.969Z,68.68
2019-06-07T06:22:44.759Z,68.69
2019-06-07T06:25:31.446Z,68.79
2019-06-07T06:30:07.000Z,68.93
2019-06-07T06:32:42.946Z,68.95
2019-06-07T06:35:00.755Z,68.82
2019-06-07T06:37:27.112Z,68.76
2019-06-07T06:39:53.166Z,69.03
2019-06-07T06:42:19.122Z,69.00
2019-06-07T06:44:47.140Z,68.99
2019-06-07T06:47:12.879Z,68.97
2019-06-07T06:49:40.089Z,69.28
2019-06-07T06:52:09.609Z,69.31
2019-06-07T06:54:43.141Z,69.14
2019-06-07T06:57:19.249Z,69.31
2019-06-07T06:59:40.881Z,69.38
2019-06-07T07:01:58.769Z,69.36
2019-06-07T07:04:24.815Z,69.33
2019-06-07T07:06:53.472Z,69.20
2019-06-07T07:09:19.082Z,69.12
2019-06-07T07:12:00.750Z,69.12
2019-06-07T07:14:13.087Z,69.28
2019-06-07T07:16:39.230Z,69.21
2019-06-07T07:19:05.370Z,69.19
2019-06-07T07:21:31.727Z,68.96
2019-06-07T07:24:20.442Z,68.97
2019-06-07T07:26:25.493Z,69.08
2019-06-07T07:28:55.214Z,69.06
2019-06-07T07:31:19.257Z,68.95
2019-06-07T07:34:26.122Z,69.01
2019-06-07T07:36:28.588Z,69.12
2019-06-07T07:38:40.608Z,69.18
2019-06-07T07:41:15.640Z,69.18
2019-06-07T07:43:37.366Z,69.14
2019-06-07T07:46:19.885Z,69.15
2019-06-07T07:48:30.957Z,69.02
2019-06-07T07:51:00.360Z,69.15
2019-06-07T07:53:24.649Z,69.18
2019-06-07T07:55:53.838Z,69.28
2019-06-07T07:58:18.341Z,69.18
2019-06-07T08:01:00.156Z,69.24
2019-06-07T08:03:11.968Z,69.20
2019-06-07T08:05:42.878Z,69.12
2019-06-07T08:08:07.845Z,69.11
2019-06-07T08:10:33.453Z,69.22
2019-06-07T08:13:22.752Z,69.19
2019-06-07T08:15:27.547Z,69.25
2019-06-07T08:17:59.661Z,69.21
2019-06-07T08:20:21.256Z,69.14
2019-06-07T08:22:47.649Z,69.10
2019-06-07T08:25:13.764Z,68.88
2019-06-07T08:27:39.734Z,69.04
2019-06-07T08:30:46.528Z,68.89
2019-06-07T08:32:37.465Z,68.83
2019-06-07T08:35:06.710Z,68.88
2019-06-07T08:38:14.055Z,68.81
2019-06-07T08:40:01.911Z,68.84
2019-06-07T08:42:36.923Z,68.79
2019-06-07T08:45:01.574Z,68.97
2019-06-07T08:47:22.917Z,68.83
2019-06-07T08:49:50.638Z,68.82
2019-06-07T08:52:17.080Z,68.74
2019-06-07T08:54:43.141Z,68.92
2019-06-07T08:57:20.552Z,68.92
2019-06-07T08:59:37.206Z,68.95
2019-06-07T09:02:14.463Z,68.95
2019-06-07T09:04:31.061Z,68.93
2019-06-07T09:07:18.425Z,68.87
2019-06-07T09:09:24.793Z,69.03
2019-06-07T09:11:50.843Z,68.83
2019-06-07T09:14:16.898Z,68.87
2019-06-07T09:16:42.873Z,68.81
2019-06-07T09:19:10.941Z,68.93
2019-06-07T09:21:39.706Z,68.82
2019-06-07T09:24:11.175Z,69.01
2019-06-07T09:26:33.430Z,68.88
2019-06-07T09:29:01.374Z,68.97
2019-06-07T09:31:48.843Z,68.91
2019-06-07T09:33:57.824Z,68.84
2019-06-07T09:36:22.677Z,68.84
2019-06-07T09:38:48.743Z,68.97
2019-06-07T09:41:14.786Z,68.87
2019-06-07T09:44:19.037Z,68.95
2019-06-07T09:46:12.804Z,68.77
2019-06-07T09:51:18.573Z,68.78
2019-06-07T09:53:34.523Z,68.65
2019-06-07T09:56:03.536Z,68.78
2019-06-07T09:58:51.277Z,68.71
2019-06-07T10:00:57.556Z,68.72
2019-06-07T10:03:23.640Z,68.70
2019-06-07T10:05:49.602Z,68.73
2019-06-07T10:09:00.998Z,68.56
2019-06-07T10:10:43.567Z,68.68
2019-06-07T10:13:10.309Z,68.67
2019-06-07T10:15:38.476Z,68.60
2019-06-07T10:18:04.894Z,68.68
2019-06-07T10:20:31.006Z,68.70
2019-06-07T10:22:57.066Z,68.65
2019-06-07T10:25:23.129Z,68.65
2019-06-07T10:27:49.185Z,68.60
2019-06-07T10:30:15.072Z,68.51
2019-06-07T10:32:40.992Z,68.56
2019-06-07T10:35:07.826Z,68.64
2019-06-07T10:37:35.061Z,68.56
2019-06-07T10:40:01.115Z,68.51
2019-06-07T10:42:27.147Z,68.56
2019-06-07T10:44:53.525Z,68.81
2019-06-07T10:47:19.583Z,68.60
2019-06-07T10:49:45.564Z,68.51
2019-06-07T10:52:11.613Z,68.60
2019-06-07T10:54:39.412Z,68.72
2019-06-07T10:57:09.226Z,68.69
2019-06-07T10:59:33.070Z,68.76
2019-06-07T11:01:59.105Z,68.72
2019-06-07T11:04:25.384Z,68.81
2019-06-07T11:06:51.760Z,68.60
2019-06-07T11:09:17.803Z,68.72
2019-06-07T11:11:43.862Z,68.74
2019-06-07T11:14:10.570Z,68.64
2019-06-07T11:16:39.562Z,68.61
2019-06-07T11:19:06.063Z,68.57
2019-06-07T11:21:32.034Z,68.61
2019-06-07T11:23:58.006Z,68.79
2019-06-07T11:26:24.074Z,68.57
2019-06-07T11:28:50.132Z,68.73
2019-06-07T11:31:16.181Z,68.70
2019-06-07T11:33:42.247Z,68.54
2019-06-07T11:36:08.538Z,68.75
2019-06-07T11:38:34.654Z,68.64
2019-06-07T11:41:00.709Z,68.71
2019-06-07T11:43:26.629Z,68.56
2019-06-07T11:45:52.702Z,68.68
2019-06-07T11:48:18.762Z,68.52
2019-06-07T11:50:44.824Z,68.74
2019-06-07T11:53:10.881Z,68.77
2019-06-07T11:55:37.246Z,68.58
2019-06-07T11:58:03.612Z,68.64
2019-06-07T12:00:29.647Z,68.63
2019-06-07T12:02:55.698Z,68.51
2019-06-07T12:05:21.859Z,68.71
2019-06-07T12:07:48.317Z,68.67
2019-06-07T12:10:16.588Z,68.63
2019-06-07T12:12:41.929Z,68.69
2019-06-07T12:15:08.789Z,68.71
2019-06-07T12:17:34.908Z,68.59
2019-06-07T12:20:00.933Z,68.63
2019-06-07T12:22:26.993Z,68.86
2019-06-07T12:24:53.052Z,68.63
2019-06-07T12:27:18.995Z,68.61
2019-06-07T12:29:44.942Z,68.75
2019-06-07T12:32:11.242Z,68.74
2019-06-07T12:34:39.606Z,68.69
2019-06-07T12:37:05.651Z,68.54
2019-06-07T12:39:31.694Z,68.69
2019-06-07T12:41:57.744Z,68.55
2019-06-07T12:44:24.100Z,68.66
2019-06-07T12:46:50.159Z,68.65
2019-06-07T12:49:17.026Z,68.71
2019-06-07T12:51:43.188Z,68.70
2019-06-07T12:54:09.238Z,68.67
2019-06-07T12:56:35.380Z,68.63
2019-06-07T12:59:01.551Z,68.59
2019-06-07T13:01:27.617Z,68.56
2019-06-07T13:03:53.670Z,68.69
2019-06-07T13:06:19.634Z,68.71
2019-06-07T13:08:45.684Z,68.56
2019-06-07T13:11:19.858Z,68.61
2019-06-07T13:13:39.523Z,68.58
2019-06-07T13:16:05.626Z,68.74
2019-06-07T13:18:31.739Z,68.73
2019-06-07T13:20:57.788Z,68.80
2019-06-07T13:23:24.380Z,68.80
2019-06-07T13:25:50.438Z,68.61
2019-06-07T13:28:17.302Z,68.48
2019-06-07T13:30:44.214Z,68.48
2019-06-07T13:33:10.239Z,68.62
2019-06-07T13:35:36.595Z,68.42
2019-06-07T13:38:02.745Z,68.43
2019-06-07T13:40:28.802Z,68.56
2019-06-07T13:42:54.866Z,68.18
2019-06-07T13:45:22.155Z,68.30
2019-06-07T13:47:48.524Z,68.31
2019-06-07T13:50:14.579Z,68.28
2019-06-07T13:52:42.103Z,68.32
2019-06-07T13:55:08.539Z,68.36
2019-06-07T13:57:34.685Z,68.36
2019-06-07T14:00:09.990Z,68.42
2019-06-07T14:02:29.848Z,68.27
2019-06-07T14:04:56.325Z,68.16
2019-06-07T14:07:23.606Z,68.30
2019-06-07T14:09:50.079Z,68.20
2019-06-07T14:12:15.922Z,68.02
2019-06-07T14:14:41.880Z,68.14
2019-06-07T14:17:07.854Z,68.12
2019-06-07T14:19:34.281Z,68.08
2019-06-07T14:22:00.377Z,68.28
2019-06-07T14:24:27.050Z,68.05
2019-06-07T14:27:05.778Z,68.20
2019-06-07T14:29:32.184Z,68.27
2019-06-07T14:31:58.204Z,68.33
2019-06-07T14:34:24.309Z,68.26
2019-06-07T14:36:50.309Z,68.28
2019-06-07T14:39:16.354Z,68.18
2019-06-07T14:41:42.267Z,68.18
2019-06-07T14:44:08.249Z,68.25
2019-06-07T14:46:34.472Z,68.30
2019-06-07T14:49:00.551Z,68.00
2019-06-07T14:51:26.508Z,68.23
2019-06-07T14:53:52.464Z,68.26
2019-06-07T14:56:18.514Z,68.25
2019-06-07T14:58:44.564Z,68.30
2019-06-07T15:01:10.511Z,68.35
2019-06-07T15:03:39.186Z,68.34
2019-06-07T15:06:05.287Z,68.33
2019-06-07T15:08:32.891Z,68.40
2019-06-07T15:10:59.020Z,68.37
2019-06-07T15:13:25.083Z,68.28
2019-06-07T15:15:51.027Z,68.38
2019-06-07T15:18:20.087Z,68.28
2019-06-07T15:20:48.621Z,68.35
2019-06-07T15:23:14.537Z,68.25
2019-06-07T15:25:40.553Z,68.41
2019-06-07T15:28:09.789Z,68.46
2019-06-07T15:30:35.953Z,68.54
2019-06-07T15:33:01.999Z,68.37
2019-06-07T15:35:28.139Z,68.41
2019-06-07T15:37:54.222Z,68.42
2019-06-07T15:40:20.477Z,68.53
2019-06-07T15:42:52.756Z,68.49
2019-06-07T15:45:14.148Z,68.56
2019-06-07T15:47:40.584Z,68.48
2019-06-07T15:50:06.967Z,68.51
2019-06-07T15:52:33.432Z,68.46
2019-06-07T15:54:59.790Z,68.36
2019-06-07T15:57:25.847Z,68.33
2019-06-07T15:59:51.902Z,68.46
2019-06-07T16:02:17.960Z,68.53
2019-06-07T16:04:44.011Z,68.38
2019-06-07T16:07:09.981Z,68.49
2019-06-07T16:09:38.563Z,68.48
2019-06-07T16:12:04.543Z,68.60
2019-06-07T16:14:30.893Z,68.53
2019-06-07T16:16:57.570Z,68.53
2019-06-07T16:19:23.531Z,68.54
2019-06-07T16:21:49.953Z,68.56
2019-06-07T16:24:15.961Z,68.53
2019-06-07T16:26:42.441Z,68.62
2019-06-07T16:29:08.400Z,68.58
2019-06-07T16:31:35.189Z,68.49
2019-06-07T16:34:01.308Z,68.58
2019-06-07T16:36:27.349Z,68.67
2019-06-07T16:38:53.218Z,68.59
2019-06-07T16:41:19.253Z,68.63
2019-06-07T16:43:45.929Z,68.65
2019-06-07T16:46:12.078Z,68.64
2019-06-07T16:48:38.705Z,68.61
2019-06-07T16:51:04.734Z,68.61
2019-06-07T16:53:30.651Z,68.69
2019-06-07T16:55:56.692Z,68.64
2019-06-07T16:58:22.744Z,68.51
2019-06-07T17:00:49.122Z,68.63
2019-06-07T17:03:15.175Z,68.74
2019-06-07T17:05:44.837Z,68.73
2019-06-07T17:08:09.259Z,68.74
2019-06-07T17:10:35.277Z,68.83
2019-06-07T17:13:01.334Z,68.61
2019-06-07T17:15:27.380Z,68.82
2019-06-07T17:17:53.430Z,68.81
2019-06-07T17:20:20.196Z,68.69
2019-06-07T17:22:47.357Z,68.56
2019-06-07T17:25:15.169Z,68.68
2019-06-07T17:27:41.953Z,68.48
2019-06-07T17:30:08.490Z,68.72
2019-06-07T17:32:47.589Z,68.82
2019-06-07T17:35:02.734Z,68.77
2019-06-07T17:37:28.786Z,68.63
2019-06-07T17:39:54.834Z,68.80
2019-06-07T17:42:20.882Z,68.73
2019-06-07T17:44:47.119Z,68.82
2019-06-07T17:47:13.198Z,68.80
2019-06-07T17:49:39.258Z,68.79
2019-06-07T17:52:05.306Z,68.81
2019-06-07T17:54:31.368Z,68.77
2019-06-07T17:56:57.739Z,68.87
2019-06-07T17:59:23.807Z,68.56
2019-06-07T18:02:10.186Z,68.64
2019-06-07T18:04:17.673Z,68.72
2019-06-07T18:06:45.200Z,68.84
2019-06-07T18:09:14.094Z,68.68
2019-06-07T18:11:39.365Z,68.86
2019-06-07T18:14:10.564Z,68.92
2019-06-07T18:16:33.132Z,68.95
2019-06-07T18:18:59.505Z,68.78
2019-06-07T18:21:25.565Z,68.84
2019-06-07T18:23:52.859Z,68.82
2019-06-07T18:26:19.020Z,68.78
2019-06-07T18:28:46.501Z,68.76
2019-06-07T18:31:12.677Z,68.78
2019-06-07T18:33:38.726Z,68.72
2019-06-07T18:36:04.770Z,68.78
2019-06-07T18:38:30.833Z,68.77
2019-06-07T18:40:56.881Z,68.67
2019-06-07T18:43:23.044Z,68.72
2019-06-07T18:45:49.512Z,68.49
2019-06-07T18:48:15.983Z,68.31
2019-06-07T18:50:42.033Z,68.15
2019-06-07T18:53:08.081Z,67.94
2019-06-07T18:55:34.129Z,67.74
2019-06-07T18:58:00.193Z,67.68
2019-06-07T19:00:26.768Z,67.71
2019-06-07T19:02:54.025Z,67.67
2019-06-07T19:05:20.203Z,67.62
2019-06-07T19:07:46.266Z,67.54
2019-06-07T19:10:13.034Z,67.50
2019-06-07T19:12:39.125Z,67.45
2019-06-07T19:15:05.228Z,67.41
2019-06-07T19:17:31.291Z,67.45
2019-06-07T19:19:58.269Z,67.38
2019-06-07T19:22:24.407Z,67.46
2019-06-07T19:24:52.130Z,67.50
2019-06-07T19:27:18.981Z,67.56
2019-06-07T19:29:46.448Z,67.59
2019-06-07T19:32:13.114Z,67.55
2019-06-07T19:34:40.112Z,67.63
2019-06-07T19:37:08.399Z,67.62
2019-06-07T19:39:35.144Z,67.64
2019-06-07T19:42:02.234Z,67.65
2019-06-07T19:44:28.824Z,67.70
2019-06-07T19:46:54.843Z,67.73
2019-06-07T19:49:21.301Z,67.71
2019-06-07T19:51:47.876Z,67.73
2019-06-07T19:54:14.334Z,67.73
2019-06-07T19:56:41.027Z,67.77
2019-06-07T19:59:07.570Z,67.92
2019-06-07T20:01:34.178Z,67.80
2019-06-07T20:04:02.272Z,67.92
2019-06-07T20:06:29.182Z,67.94
2019-06-07T20:08:56.507Z,67.96
2019-06-07T20:11:22.888Z,67.90
2019-06-07T20:13:49.502Z,68.07
2019-06-07T20:16:16.577Z,67.95
2019-06-07T20:18:43.487Z,67.97
2019-06-07T20:21:10.009Z,67.98
2019-06-07T20:23:36.262Z,68.05
2019-06-07T20:26:02.491Z,68.02
2019-06-07T20:28:28.798Z,68.00
2019-06-07T20:30:54.965Z,68.10
2019-06-07T20:33:20.926Z,68.20
2019-06-07T20:35:46.944Z,68.15
2019-06-07T20:38:13.014Z,68.10
2019-06-07T20:40:39.075Z,68.20
2019-06-07T20:43:05.755Z,68.25
2019-06-07T20:45:33.990Z,68.23
2019-06-07T20:48:00.122Z,68.21
2019-06-07T20:50:26.197Z,68.33
2019-06-07T20:52:52.210Z,68.34
2019-06-07T20:55:18.498Z,68.30
2019-06-07T20:57:44.564Z,68.33
2019-06-07T21:00:17.283Z,68.43
2019-06-07T21:02:38.761Z,68.36
2019-06-07T21:05:05.254Z,68.54
2019-06-07T21:07:31.704Z,68.57
2019-06-07T21:09:57.690Z,68.60
2019-06-07T21:12:23.716Z,68.59
2019-06-07T21:14:50.101Z,68.69
2019-06-07T21:17:16.577Z,68.75
2019-06-07T21:19:42.652Z,68.69
2019-06-07T21:22:08.876Z,68.78
2019-06-07T21:24:34.961Z,68.82
2019-06-07T21:27:01.628Z,68.82
2019-06-07T21:29:28.116Z,68.83
2019-06-07T21:31:54.186Z,68.84
2019-06-07T21:34:20.246Z,68.81
2019-06-07T21:36:46.298Z,68.87
2019-06-07T21:39:12.549Z,68.84
2019-06-07T21:41:38.635Z,68.92
2019-06-07T21:44:06.111Z,68.90
2019-06-07T21:46:32.715Z,68.90
2019-06-07T21:48:58.825Z,68.91
2019-06-07T21:51:25.022Z,68.90
2019-06-07T21:53:51.317Z,68.91
2019-06-07T21:56:17.374Z,68.89
2019-06-07T21:58:43.437Z,68.98
2019-06-07T22:01:12.060Z,68.94
2019-06-07T22:03:38.355Z,69.02
2019-06-07T22:06:05.669Z,68.97
2019-06-07T22:08:31.926Z,68.98
2019-06-07T22:10:58.271Z,68.97
2019-06-07T22:13:24.543Z,69.02
2019-06-07T22:15:50.620Z,68.97
2019-06-07T22:18:16.543Z,69.12
2019-06-07T22:20:42.430Z,69.05
2019-06-07T22:23:08.620Z,69.00
2019-06-07T22:25:34.743Z,69.03
2019-06-07T22:28:00.818Z,69.08
2019-06-07T22:30:26.786Z,69.05
2019-06-07T22:32:52.736Z,69.01
2019-06-07T22:35:19.369Z,69.07
2019-06-07T22:37:45.387Z,69.07
2019-06-07T22:40:12.454Z,69.19
2019-06-07T22:42:38.616Z,69.11
2019-06-07T22:45:04.739Z,69.18
2019-06-07T22:47:30.905Z,69.13
2019-06-07T22:49:56.975Z,69.12
2019-06-07T22:52:23.126Z,69.10
2019-06-07T22:54:49.381Z,69.22
2019-06-07T22:57:18.344Z,69.10
2019-06-07T22:59:44.448Z,69.13
2019-06-07T23:02:10.497Z,69.18
2019-06-07T23:04:38.814Z,69.10
2019-06-07T23:07:04.867Z,69.11
2019-06-07T23:09:30.916Z,69.05
2019-06-07T23:11:56.966Z,69.15
2019-06-07T23:14:25.661Z,69.07
2019-06-07T23:16:55.622Z,69.18
2019-06-07T23:19:18.353Z,69.18
2019-06-07T23:21:44.385Z,69.14
2019-06-07T23:24:10.454Z,69.10
2019-06-07T23:26:38.670Z,69.15
2019-06-07T23:29:05.156Z,69.12
2019-06-07T23:31:31.103Z,69.16
2019-06-07T23:33:57.147Z,69.15
2019-06-07T23:36:23.107Z,69.11
2019-06-07T23:38:49.153Z,69.19
2019-06-07T23:41:15.578Z,69.16
2019-06-07T23:43:41.565Z,69.21
2019-06-07T23:46:07.511Z,69.14
2019-06-07T23:48:33.475Z,69.26
2019-06-07T23:50:59.503Z,69.26
2019-06-07T23:53:25.562Z,69.21
2019-06-07T23:55:51.622Z,69.31
2019-06-07T23:58:18.591Z,69.19
